Time;durP1;ratioP1;P1;durP2;ratioP2;P2;SDS_P1;SDS_P2;PMS_P1;PMS_P2;Temp;Humidity;BMP_temperature;BMP_pressure;BME280_temperature;BME280_humidity;BME280_pressure;Samples;Min_cycle;Max_cycle;Signal;HPM_P1;HPM_P2
2021/08/29 00:01:54;;;;;;;12.70;7.83;;;;;;;11.79;97.60;99384.28;1767724;80;20444;-78
2021/08/29 00:04:29;;;;;;;23.25;8.55;;;;;;;11.79;97.79;99389.79;1725135;81;21501;-77
2021/08/29 00:07:06;;;;;;;20.40;10.70;;;;;;;11.83;98.01;99397.06;1731902;81;20977;-78
2021/08/29 00:09:41;;;;;;;23.52;9.75;;;;;;;11.89;98.21;99393.56;1735464;82;21132;-76
2021/08/29 00:12:13;;;;;;;15.98;9.63;;;;;;;11.95;98.35;99380.45;1686700;83;21003;-73
2021/08/29 00:14:50;;;;;;;17.23;10.32;;;;;;;12.00;98.81;99366.52;1709942;83;21015;-73
2021/08/29 00:17:17;;;;;;;16.12;9.18;;;;;;;12.07;99.31;99363.48;1726165;81;20991;-73
2021/08/29 00:19:54;;;;;;;16.90;9.05;;;;;;;12.14;99.14;99362.95;1712520;82;20981;-73
2021/08/29 00:22:25;;;;;;;17.80;8.70;;;;;;;12.16;98.98;99351.84;1731735;82;21149;-74
2021/08/29 00:25:02;;;;;;;13.05;7.92;;;;;;;12.20;99.03;99361.63;1708380;83;20988;-74
2021/08/29 00:27:39;;;;;;;13.68;7.55;;;;;;;12.24;99.02;99361.20;1794583;79;20917;-75
2021/08/29 00:30:13;;;;;;;23.87;9.40;;;;;;;12.29;99.15;99366.52;1764279;79;21498;-73
2021/08/29 00:32:42;;;;;;;15.63;7.87;;;;;;;12.31;99.48;99368.94;1800937;79;21323;-74
2021/08/29 00:35:10;;;;;;;13.98;7.47;;;;;;;12.35;99.82;99369.33;1789347;79;21209;-75
2021/08/29 00:37:45;;;;;;;17.57;8.13;;;;;;;12.38;99.75;99374.17;1792055;79;21029;-75
2021/08/29 00:40:15;;;;;;;19.37;8.98;;;;;;;12.38;99.26;99376.92;1793206;79;20908;-76
2021/08/29 00:42:46;;;;;;;25.43;8.68;;;;;;;12.37;99.03;99377.25;1718366;82;20977;-76
2021/08/29 00:45:21;;;;;;;18.57;9.03;;;;;;;12.39;99.07;99390.92;1699784;82;20941;-76
2021/08/29 00:47:55;;;;;;;17.02;8.10;;;;;;;12.42;99.22;99390.27;1784735;79;21513;-76
2021/08/29 00:50:24;;;;;;;14.87;8.28;;;;;;;12.48;99.61;99379.88;1753464;80;20990;-76
2021/08/29 00:52:54;;;;;;;12.78;8.33;;;;;;;12.52;99.76;99388.52;1774938;79;20877;-76
2021/08/29 00:55:25;;;;;;;13.95;7.55;;;;;;;12.55;99.96;99393.36;1757463;79;21019;-78
2021/08/29 00:57:59;;;;;;;14.73;7.95;;;;;;;12.56;100.00;99392.22;1760700;79;26721;-77
2021/08/29 01:00:40;;;;;;;13.00;7.95;;;;;;;12.56;100.00;99397.72;1781441;79;21505;-75
2021/08/29 01:03:07;;;;;;;17.37;8.30;;;;;;;12.61;100.00;99392.59;1784338;79;20917;-74
2021/08/29 01:05:54;;;;;;;18.77;8.68;;;;;;;12.70;100.00;99388.41;1789928;79;20841;-75
2021/08/29 01:08:34;;;;;;;12.50;7.28;;;;;;;12.76;100.00;99379.59;1794804;79;20908;-76
2021/08/29 01:11:09;;;;;;;11.97;7.33;;;;;;;12.82;100.00;99374.70;1770179;79;20833;-76
2021/08/29 01:13:46;;;;;;;11.18;7.20;;;;;;;12.88;100.00;99370.61;1728391;82;20933;-77
2021/08/29 01:16:24;;;;;;;13.25;8.05;;;;;;;12.94;100.00;99365.13;1736515;82;21528;-77
2021/08/29 01:18:57;;;;;;;10.20;6.45;;;;;;;13.00;100.00;99363.79;1699522;83;21027;-77
2021/08/29 01:21:34;;;;;;;9.50;6.10;;;;;;;13.04;100.00;99352.91;1721100;82;21484;-76
2021/08/29 01:24:13;;;;;;;9.70;6.08;;;;;;;13.09;100.00;99349.95;1728052;82;20937;-76
2021/08/29 01:27:15;;;;;;;8.98;5.22;;;;;;;13.14;100.00;99349.17;1708794;82;21174;-76
2021/08/29 01:29:47;;;;;;;9.08;5.45;;;;;;;13.20;100.00;99354.74;1727465;82;21044;-77
2021/08/29 01:32:19;;;;;;;8.40;5.37;;;;;;;13.23;100.00;99364.86;1776275;79;20972;-77
2021/08/29 01:34:48;;;;;;;7.60;5.50;;;;;;;13.24;100.00;99371.98;1792971;79;20963;-77
2021/08/29 01:37:23;;;;;;;8.80;5.62;;;;;;;13.25;100.00;99366.70;1708797;79;20961;-76
2021/08/29 01:39:58;;;;;;;8.85;5.17;;;;;;;13.26;100.00;99368.31;1786331;79;20904;-76
2021/08/29 01:42:28;;;;;;;8.38;5.45;;;;;;;13.26;100.00;99376.59;1781086;79;20940;-76
2021/08/29 01:45:01;;;;;;;8.85;5.75;;;;;;;13.26;100.00;99378.77;1788795;79;20893;-77
2021/08/29 01:47:31;;;;;;;8.93;5.72;;;;;;;13.23;100.00;99377.27;1780930;79;21053;-77
2021/08/29 01:50:06;;;;;;;9.65;5.50;;;;;;;13.21;100.00;99377.03;1712161;83;20968;-77
2021/08/29 01:52:39;;;;;;;6.28;4.78;;;;;;;13.20;100.00;99375.98;1723265;82;21796;-78
2021/08/29 01:55:14;;;;;;;8.68;5.60;;;;;;;13.18;100.00;99381.03;1668941;82;20972;-78
2021/08/29 01:57:57;;;;;;;7.85;5.37;;;;;;;13.15;100.00;99369.27;1693629;82;21021;-77
2021/08/29 02:01:02;;;;;;;7.72;5.90;;;;;;;13.14;100.00;99371.79;1708353;82;20977;-75
2021/08/29 02:03:31;;;;;;;6.72;5.25;;;;;;;13.14;100.00;99378.11;1709310;83;21003;-76
2021/08/29 02:06:32;;;;;;;9.33;5.80;;;;;;;13.14;100.00;99373.17;1696242;82;20913;-75
2021/08/29 02:09:06;;;;;;;6.70;5.25;;;;;;;13.16;100.00;99377.80;1715540;82;20885;-75
2021/08/29 02:11:39;;;;;;;9.70;5.78;;;;;;;13.20;100.00;99368.52;1788821;79;20933;-79
2021/08/29 02:14:21;;;;;;;;;;;;;;;13.23;100.00;99362.91;1786408;79;20964;-78
2021/08/29 02:16:52;;;;;;;8.98;5.37;;;;;;;13.26;100.00;99365.56;1788938;79;20118;-78
2021/08/29 02:19:26;;;;;;;12.75;6.20;;;;;;;13.25;100.00;99371.65;1768358;79;21813;-75
2021/08/29 02:21:56;;;;;;;8.70;5.75;;;;;;;13.28;100.00;99368.79;1796897;79;20869;-75
2021/08/29 02:24:27;;;;;;;8.75;6.10;;;;;;;13.28;100.00;99357.19;1791775;79;20912;-75
2021/08/29 02:26:55;;;;;;;7.28;5.58;;;;;;;13.31;100.00;99350.97;1780562;79;20958;-74
2021/08/29 02:29:26;;;;;;;8.65;6.55;;;;;;;13.34;100.00;99360.52;1766586;79;20865;-75
2021/08/29 02:31:54;;;;;;;16.95;6.45;;;;;;;13.35;100.00;99363.50;1791391;79;22048;-74
2021/08/29 02:34:23;;;;;;;12.60;6.70;;;;;;;13.36;100.00;99360.41;1710715;82;20995;-76
2021/08/29 02:36:55;;;;;;;12.23;6.87;;;;;;;13.36;100.00;99354.09;1711699;82;20928;-75
2021/08/29 02:39:27;;;;;;;14.50;7.42;;;;;;;13.36;100.00;99352.14;1716086;82;21170;-75
2021/08/29 02:41:58;;;;;;;13.90;8.73;;;;;;;13.36;100.00;99337.55;1783081;79;21475;-76
2021/08/29 02:44:28;;;;;;;11.50;7.45;;;;;;;13.39;100.00;99341.01;1792984;79;21157;-75
2021/08/29 02:47:00;;;;;;;10.38;7.50;;;;;;;13.39;100.00;99341.01;1709730;82;21486;-75
2021/08/29 02:49:32;;;;;;;12.78;8.58;;;;;;;13.39;100.00;99333.55;1691962;82;21499;-74
2021/08/29 02:52:02;;;;;;;12.98;8.23;;;;;;;13.41;100.00;99346.98;1756133;80;21003;-75
2021/08/29 02:54:33;;;;;;;13.98;9.40;;;;;;;13.44;100.00;99347.12;1723182;81;21003;-81
2021/08/29 02:57:05;;;;;;;12.35;9.65;;;;;;;13.45;100.00;99341.03;1722988;82;21065;-76
2021/08/29 02:59:36;;;;;;;13.88;9.60;;;;;;;13.46;100.00;99348.16;1740025;82;20918;-74
2021/08/29 03:02:11;;;;;;;16.25;10.43;;;;;;;13.46;100.00;99348.16;1707764;82;21009;-76
2021/08/29 03:04:48;;;;;;;18.82;11.50;;;;;;;13.46;100.00;99345.40;1673417;84;20910;-79
2021/08/29 03:07:23;;;;;;;;;;;;;;;13.45;100.00;99336.89;1683234;83;21452;-77
2021/08/29 03:09:49;;;;;;;14.33;11.12;;;;;;;13.45;100.00;99336.89;1693738;82;21523;-74
2021/08/29 03:12:18;;;;;;;17.23;11.05;;;;;;;13.45;100.00;99336.32;1712413;82;20908;-86
2021/08/29 03:14:48;;;;;;;14.80;10.40;;;;;;;13.46;100.00;99337.13;1714855;81;21540;-85
2021/08/29 03:17:19;;;;;;;15.25;11.95;;;;;;;13.45;100.00;99321.16;1715058;82;20971;-87
2021/08/29 03:19:50;;;;;;;15.85;10.68;;;;;;;13.47;100.00;99320.81;1763944;80;21543;-88
2021/08/29 03:22:21;;;;;;;15.48;11.38;;;;;;;13.47;100.00;99322.19;1773180;80;21537;-88
2021/08/29 03:24:50;;;;;;;17.52;10.88;;;;;;;13.47;100.00;99319.44;1757301;80;20925;-78
2021/08/29 03:27:17;;;;;;;15.13;11.10;;;;;;;13.48;100.00;99317.72;1759353;80;21006;-82
2021/08/29 03:29:46;;;;;;;15.95;11.00;;;;;;;13.50;100.00;99318.76;1776791;80;21014;-81
2021/08/29 03:32:14;;;;;;;16.82;11.03;;;;;;;13.52;100.00;99320.03;1789635;79;20842;-82
2021/08/29 03:34:40;;;;;;;14.38;10.82;;;;;;;13.55;100.00;99318.54;1751435;79;21097;-82
2021/08/29 03:37:07;;;;;;;12.88;10.10;;;;;;;13.57;100.00;99317.63;1759549;80;21078;-82
2021/08/29 03:39:36;;;;;;;16.32;11.30;;;;;;;13.58;100.00;99309.59;1758551;80;20939;-82
2021/08/29 03:42:03;;;;;;;18.50;11.12;;;;;;;13.60;100.00;99303.16;1764784;80;21011;-82
2021/08/29 03:44:31;;;;;;;14.93;10.40;;;;;;;13.63;99.82;99301.67;1745592;80;20995;-82
2021/08/29 03:46:59;;;;;;;15.25;10.28;;;;;;;13.63;99.61;99307.19;1753335;80;21093;-82
2021/08/29 03:49:31;;;;;;;13.60;9.40;;;;;;;13.64;99.56;99292.25;1754628;80;20960;-82
2021/08/29 03:51:58;;;;;;;16.95;9.33;;;;;;;13.64;99.45;99287.53;1761801;80;20975;-79
2021/08/29 03:54:25;;;;;;;11.48;8.90;;;;;;;13.68;99.46;99289.84;1759467;80;20956;-77
2021/08/29 03:56:53;;;;;;;14.07;9.05;;;;;;;13.72;99.46;99283.06;1716154;82;21208;-83
2021/08/29 03:59:20;;;;;;;10.82;7.60;;;;;;;13.75;99.18;99281.00;1758119;80;21534;-83
2021/08/29 04:01:49;;;;;;;11.50;8.28;;;;;;;13.78;99.08;99276.18;1753388;80;21031;-84
2021/08/29 04:04:17;;;;;;;11.75;7.50;;;;;;;13.83;98.89;99292.51;1762533;80;20960;-86
2021/08/29 04:06:46;;;;;;;8.83;7.45;;;;;;;13.86;98.68;99284.32;1717468;82;20956;-82
2021/08/29 04:09:14;;;;;;;14.47;7.67;;;;;;;13.91;98.41;99285.24;1712616;82;21118;-78
2021/08/29 04:11:42;;;;;;;9.53;7.17;;;;;;;13.94;98.30;99291.45;1787189;79;21701;-86
2021/08/29 04:14:12;;;;;;;8.55;7.00;;;;;;;13.97;97.96;99288.01;1786406;79;20959;-82
2021/08/29 04:16:41;;;;;;;11.03;8.28;;;;;;;14.00;97.79;99277.66;1792961;79;20912;-84
2021/08/29 04:19:16;;;;;;;13.93;6.80;;;;;;;14.00;97.55;99277.09;1775558;79;21098;-78
2021/08/29 04:21:43;;;;;;;9.03;7.28;;;;;;;14.03;97.57;99267.31;1724628;82;20998;-79
2021/08/29 04:24:10;;;;;;;9.13;6.55;;;;;;;14.06;97.65;99263.86;1734700;81;21479;-76
2021/08/29 04:26:40;;;;;;;9.58;7.03;;;;;;;14.08;97.49;99272.60;1734022;82;20985;-78
2021/08/29 04:29:07;;;;;;;10.85;6.50;;;;;;;14.12;97.59;99281.23;1749822;81;20979;-79
2021/08/29 04:31:34;;;;;;;9.05;6.47;;;;;;;14.15;97.77;99284.68;1731785;82;20997;-75
2021/08/29 04:34:08;;;;;;;9.00;6.60;;;;;;;14.21;97.77;99288.81;1730766;82;23793;-81
2021/08/29 04:36:39;;;;;;;11.03;7.30;;;;;;;14.25;97.39;99286.75;1729903;82;21153;-76
2021/08/29 04:39:22;;;;;;;10.75;6.50;;;;;;;14.30;97.20;99287.89;1722245;82;21422;-78
2021/08/29 04:41:50;;;;;;;12.13;6.40;;;;;;;14.35;96.87;99287.66;1726635;81;21491;-86
2021/08/29 04:44:16;;;;;;;15.28;6.70;;;;;;;14.40;96.98;99288.23;1726408;82;20933;-85
2021/08/29 04:46:44;;;;;;;7.55;6.17;;;;;;;14.45;97.01;99287.99;1730788;82;21518;-76
2021/08/29 04:49:11;;;;;;;7.22;5.70;;;;;;;14.54;97.40;99293.39;1727998;82;21141;-84
2021/08/29 04:51:37;;;;;;;10.30;6.05;;;;;;;14.63;97.25;99289.11;1721624;82;21557;-81
2021/08/29 04:54:05;;;;;;;9.88;6.12;;;;;;;14.71;97.19;99293.13;1738905;81;21559;-81
2021/08/29 04:56:33;;;;;;;9.48;5.95;;;;;;;14.77;97.17;99287.59;1722310;80;20940;-83
2021/08/29 04:59:03;;;;;;;12.13;6.42;;;;;;;14.84;97.03;99286.41;1734784;80;20996;-89
2021/08/29 05:01:31;;;;;;;8.23;5.90;;;;;;;14.90;96.10;99288.36;1742989;80;21534;-76
2021/08/29 05:03:58;;;;;;;6.55;5.50;;;;;;;14.96;96.14;99291.10;1724939;81;21117;-76
2021/08/29 05:06:26;;;;;;;11.00;6.15;;;;;;;15.00;95.67;99286.48;1750572;80;21490;-74
2021/08/29 05:08:53;;;;;;;5.72;4.67;;;;;;;15.04;95.54;99283.20;1780785;79;21435;-79
2021/08/29 05:11:21;;;;;;;7.60;5.47;;;;;;;15.07;95.20;99282.50;1784940;80;21478;-84
2021/08/29 05:13:50;;;;;;;8.08;5.22;;;;;;;15.12;95.17;99286.40;1790748;79;21784;-79
2021/08/29 05:16:16;;;;;;;7.83;5.37;;;;;;;15.19;95.47;99278.89;1799312;79;21393;-79
2021/08/29 05:18:44;;;;;;;8.03;4.80;;;;;;;15.28;95.75;99276.77;1790126;79;21002;-78
2021/08/29 05:21:15;;;;;;;6.37;4.43;;;;;;;15.37;95.70;99269.70;1786377;79;21062;-78
2021/08/29 05:24:00;;;;;;;7.12;4.87;;;;;;;15.44;95.02;99262.97;1787947;79;21157;-79
2021/08/29 05:26:31;;;;;;;14.28;5.10;;;;;;;15.48;94.83;99255.00;1772406;79;21526;-78
2021/08/29 05:28:58;;;;;;;6.17;4.37;;;;;;;15.51;94.59;99236.88;1787595;79;20936;-81
2021/08/29 05:31:25;;;;;;;9.00;5.22;;;;;;;15.55;94.62;99236.39;1793972;79;20889;-82
2021/08/29 05:33:51;;;;;;;6.78;4.95;;;;;;;15.58;94.61;99240.45;1788123;79;20956;-80
2021/08/29 05:36:19;;;;;;;8.78;5.03;;;;;;;15.61;94.06;99233.59;1766968;79;21111;-80
2021/08/29 05:38:45;;;;;;;7.50;4.67;;;;;;;15.62;93.77;99223.33;1763798;79;21468;-77
2021/08/29 05:41:16;;;;;;;6.17;4.70;;;;;;;15.64;93.68;99231.49;1739048;80;20908;-77
2021/08/29 05:44:01;;;;;;;6.40;4.87;;;;;;;15.68;93.36;99246.80;1756143;81;20929;-75
2021/08/29 05:46:31;;;;;;;5.00;3.62;;;;;;;15.68;93.29;99245.42;1757073;80;20975;-76
2021/08/29 05:48:57;;;;;;;5.08;4.05;;;;;;;15.69;93.59;99243.67;1763881;80;20903;-77
2021/08/29 05:51:24;;;;;;;7.17;4.53;;;;;;;15.71;93.05;99248.27;1774893;80;21324;-77
2021/08/29 05:53:50;;;;;;;8.45;4.35;;;;;;;15.72;92.72;99241.58;1780172;80;20976;-77
2021/08/29 05:56:17;;;;;;;5.58;3.55;;;;;;;15.72;91.48;99254.61;1780266;80;21565;-77
2021/08/29 05:58:44;;;;;;;7.45;4.90;;;;;;;15.69;91.56;99253.36;1767314;80;20960;-78
2021/08/29 06:01:13;;;;;;;7.53;4.45;;;;;;;15.70;91.97;99247.25;1758808;80;21014;-79
2021/08/29 06:03:40;;;;;;;5.67;4.45;;;;;;;15.70;91.89;99247.25;1766542;80;21129;-79
2021/08/29 06:06:08;;;;;;;9.20;3.83;;;;;;;15.69;92.00;99245.06;1743311;80;20928;-76
2021/08/29 06:08:37;;;;;;;5.97;3.90;;;;;;;15.66;92.23;99242.20;1747914;81;20947;-78
2021/08/29 06:11:05;;;;;;;9.88;3.60;;;;;;;15.63;92.20;99241.53;1748880;81;20900;-83
2021/08/29 06:13:32;;;;;;;7.45;4.12;;;;;;;15.58;92.73;99234.33;1746227;82;21066;-74
2021/08/29 06:15:59;;;;;;;7.40;4.03;;;;;;;15.57;93.60;99238.84;1747006;80;21535;-77
2021/08/29 06:18:26;;;;;;;8.03;4.33;;;;;;;15.58;94.36;99236.30;1753510;80;20963;-79
2021/08/29 06:20:52;;;;;;;5.53;4.28;;;;;;;15.57;94.94;99231.34;1754791;80;21418;-77
2021/08/29 06:23:19;;;;;;;6.75;4.53;;;;;;;15.57;95.67;99215.32;1705424;83;21590;-76
2021/08/29 06:25:50;;;;;;;12.55;5.62;;;;;;;15.59;96.31;99213.00;1745959;80;21063;-76
2021/08/29 06:28:34;;;;;;;11.08;4.97;;;;;;;15.57;96.77;99211.97;1744357;80;22146;-76
2021/08/29 06:31:03;;;;;;;13.28;5.30;;;;;;;15.56;97.21;99208.95;1702092;82;20961;-76
2021/08/29 06:33:49;;;;;;;8.80;4.90;;;;;;;15.56;97.51;99201.23;1731511;82;20932;-75
2021/08/29 06:36:17;;;;;;;5.90;4.78;;;;;;;15.58;98.10;99196.17;1730386;81;21171;-76
2021/08/29 06:38:44;;;;;;;7.35;4.80;;;;;;;15.63;98.78;99198.64;1739480;81;21526;-75
2021/08/29 06:41:11;;;;;;;11.53;4.42;;;;;;;15.67;99.39;99196.77;1742304;80;21129;-77
2021/08/29 06:43:38;;;;;;;6.65;4.80;;;;;;;15.73;100.00;99192.58;1746932;80;21061;-77
2021/08/29 06:46:23;;;;;;;7.45;4.83;;;;;;;15.75;99.95;99188.87;1735223;81;21191;-77
2021/08/29 06:49:09;;;;;;;5.60;4.72;;;;;;;15.82;99.97;99187.66;1743980;80;21016;-79
2021/08/29 06:51:53;;;;;;;5.72;4.70;;;;;;;15.88;100.00;99181.27;1739776;81;21159;-78
2021/08/29 06:54:39;;;;;;;6.58;4.95;;;;;;;15.95;100.00;99184.20;1742089;80;21050;-79
2021/08/29 06:57:07;;;;;;;6.70;5.00;;;;;;;16.04;100.00;99177.30;1714797;81;21038;-78
2021/08/29 06:59:34;;;;;;;6.60;4.70;;;;;;;16.12;100.00;99179.07;1700547;82;21015;-79
2021/08/29 07:02:01;;;;;;;6.87;4.30;;;;;;;16.21;99.36;99182.19;1736407;80;21025;-77
2021/08/29 07:04:29;;;;;;;5.15;4.65;;;;;;;16.30;98.88;99184.17;1733429;80;21022;-77
2021/08/29 07:06:57;;;;;;;6.87;4.62;;;;;;;16.43;99.10;99178.14;1734327;80;21155;-77
2021/08/29 07:09:43;;;;;;;5.60;4.55;;;;;;;16.60;99.69;99175.53;1732348;80;20927;-80
2021/08/29 07:12:10;;;;;;;7.45;5.08;;;;;;;16.81;99.22;99166.26;1712796;82;21127;-84
2021/08/29 07:14:51;;;;;;;8.18;5.20;;;;;;;16.99;98.98;99165.22;1740536;80;21099;-74
2021/08/29 07:17:18;;;;;;;7.65;5.55;;;;;;;17.16;97.07;99153.66;1748934;80;21032;-73
2021/08/29 07:19:45;;;;;;;5.50;4.67;;;;;;;17.29;96.98;99145.95;1747330;80;21083;-74
2021/08/29 07:22:22;;;;;;;8.40;5.00;;;;;;;17.52;96.87;99143.14;1711567;80;21050;-74
2021/08/29 07:25:08;;;;;;;7.62;4.47;;;;;;;17.76;94.33;99146.94;1749823;80;21036;-74
2021/08/29 07:27:53;;;;;;;4.87;3.83;;;;;;;17.97;92.23;99152.56;1752031;80;21064;-75
2021/08/29 07:30:38;;;;;;;13.20;4.25;;;;;;;18.14;90.27;99149.25;1726302;81;21058;-78
2021/08/29 07:33:07;;;;;;;5.87;4.12;;;;;;;18.28;88.78;99152.22;1720940;81;21154;-77
2021/08/29 07:35:35;;;;;;;5.45;4.00;;;;;;;18.41;88.00;99149.42;1747713;80;21356;-77
2021/08/29 07:38:12;;;;;;;4.08;3.52;;;;;;;18.58;87.67;99143.05;1753504;80;21043;-78
2021/08/29 07:40:39;;;;;;;7.22;3.47;;;;;;;18.85;84.69;99140.42;1708824;82;21075;-77
2021/08/29 07:43:06;;;;;;;5.08;3.17;;;;;;;19.16;82.53;99143.30;1720525;81;21035;-74
2021/08/29 07:45:33;;;;;;;5.03;4.08;;;;;;;19.40;81.63;99144.12;1716932;81;21137;-76
2021/08/29 07:47:59;;;;;;;4.53;3.27;;;;;;;19.48;79.46;99146.38;1729102;80;21053;-77
2021/08/29 07:50:26;;;;;;;4.65;3.20;;;;;;;19.51;80.02;99149.81;1734408;80;21125;-79
2021/08/29 07:52:53;;;;;;;5.00;3.58;;;;;;;19.45;77.43;99144.36;1753788;80;21511;-76
2021/08/29 07:55:33;;;;;;;6.45;3.58;;;;;;;19.42;76.82;99140.36;1712846;80;21318;-79
2021/08/29 07:58:11;;;;;;;5.28;3.60;;;;;;;19.51;76.11;99128.94;1752807;80;21812;-79
2021/08/29 08:00:37;;;;;;;7.87;3.27;;;;;;;19.63;76.62;99120.88;1744584;80;21610;-81
2021/08/29 08:03:21;;;;;;;4.05;3.30;;;;;;;19.67;73.86;99113.31;1718812;82;21099;-78
2021/08/29 08:06:06;;;;;;;5.15;3.27;;;;;;;19.61;73.86;99114.30;1727454;81;20860;-77
2021/08/29 08:08:34;;;;;;;4.97;3.10;;;;;;;19.54;73.94;99108.67;1712121;80;21419;-78
2021/08/29 08:11:19;;;;;;;9.25;3.12;;;;;;;19.53;74.69;99107.67;1743393;81;21575;-77
2021/08/29 08:13:46;;;;;;;4.62;3.02;;;;;;;19.58;72.95;99106.72;1749017;80;20913;-78
2021/08/29 08:16:13;;;;;;;4.90;3.10;;;;;;;19.57;71.08;99104.32;1747774;80;21035;-77
2021/08/29 08:18:41;;;;;;;4.20;3.17;;;;;;;19.52;71.78;99104.09;1732483;81;21550;-77
2021/08/29 08:21:08;;;;;;;4.08;2.80;;;;;;;19.50;72.61;99098.67;1735660;80;21053;-77
2021/08/29 08:23:43;;;;;;;5.10;2.92;;;;;;;19.53;71.17;99093.75;1733733;80;21173;-77
2021/08/29 08:26:11;;;;;;;4.75;3.22;;;;;;;19.73;72.81;99088.09;1695529;80;21287;-77
2021/08/29 08:28:57;;;;;;;5.47;3.40;;;;;;;20.22;74.61;99080.59;1743664;80;21027;-77
2021/08/29 08:31:42;;;;;;;5.95;3.08;;;;;;;20.84;70.99;99079.01;1741659;80;21559;-77
2021/08/29 08:34:10;;;;;;;5.12;3.17;;;;;;;21.42;67.96;99070.88;1702266;81;21066;-80
2021/08/29 08:36:39;;;;;;;5.75;3.10;;;;;;;21.84;65.81;99065.05;1740966;80;21251;-76
2021/08/29 08:39:10;;;;;;;8.30;3.50;;;;;;;22.10;64.27;99062.38;1715307;81;21161;-78
2021/08/29 08:41:55;;;;;;;5.90;3.10;;;;;;;22.32;62.01;99055.51;1741699;80;21019;-76
2021/08/29 08:44:40;;;;;;;3.20;2.72;;;;;;;22.53;61.80;99052.58;1749890;80;21078;-77
2021/08/29 08:47:12;;;;;;;4.47;3.27;;;;;;;22.76;62.48;99055.45;1678337;80;21067;-77
2021/08/29 08:49:58;;;;;;;3.27;2.80;;;;;;;22.85;60.09;99041.83;1751866;80;21543;-77
2021/08/29 08:52:43;;;;;;;4.28;3.00;;;;;;;22.88;60.09;99044.61;1742633;81;21529;-77
2021/08/29 08:55:30;;;;;;;4.47;3.20;;;;;;;22.96;59.58;99038.36;1741618;80;21085;-76
2021/08/29 08:58:10;;;;;;;5.47;3.15;;;;;;;22.92;59.48;99033.39;1717426;81;21079;-74
2021/08/29 09:00:39;;;;;;;4.40;3.30;;;;;;;23.03;59.45;99039.10;1713617;80;21002;-76
2021/08/29 09:03:24;;;;;;;5.28;3.67;;;;;;;23.20;58.20;99031.74;1706492;80;21139;-75
2021/08/29 09:06:08;;;;;;;5.83;3.25;;;;;;;23.32;58.57;99033.24;1716886;80;21063;-75
2021/08/29 09:08:37;;;;;;;5.80;2.80;;;;;;;23.31;59.74;99031.05;1742425;80;33556;-76
2021/08/29 09:11:03;;;;;;;4.37;3.02;;;;;;;23.24;58.55;99018.51;1739989;80;21082;-76
2021/08/29 09:13:51;;;;;;;4.12;3.00;;;;;;;23.10;58.21;99015.06;1730205;82;20992;-76
2021/08/29 09:16:20;;;;;;;6.60;3.27;;;;;;;22.97;59.31;99010.56;1741866;80;21536;-70
2021/08/29 09:18:54;;;;;;;3.60;2.75;;;;;;;22.81;58.60;99008.88;1742207;80;21104;-78
2021/08/29 09:21:28;;;;;;;6.08;3.10;;;;;;;22.62;59.63;99007.38;1729623;80;21036;-74
2021/08/29 09:24:00;;;;;;;4.37;3.33;;;;;;;22.47;60.34;98998.30;1750035;80;20968;-73
2021/08/29 09:26:43;;;;;;;7.22;4.05;;;;;;;22.28;60.71;98994.61;1721402;81;21010;-77
2021/08/29 09:29:22;;;;;;;4.33;3.37;;;;;;;22.06;61.82;98989.13;1733811;80;20971;-76
2021/08/29 09:31:50;;;;;;;4.25;3.58;;;;;;;21.86;62.39;98979.63;1786027;79;20966;-81
2021/08/29 09:34:20;;;;;;;7.90;3.60;;;;;;;21.70;63.01;98962.52;1729557;82;21016;-88
2021/08/29 09:36:51;;;;;;;4.28;3.40;;;;;;;21.50;63.29;98956.59;1716814;82;21043;-75
2021/08/29 09:39:25;;;;;;;6.20;3.40;;;;;;;21.37;63.62;98949.87;1723433;82;21530;-76
2021/08/29 09:42:06;;;;;;;4.72;3.50;;;;;;;21.26;64.70;98962.45;1685322;85;21007;-78
2021/08/29 09:44:42;;;;;;;5.30;3.70;;;;;;;21.28;65.87;98963.44;1731935;82;21028;-78
2021/08/29 09:47:12;;;;;;;6.53;3.42;;;;;;;21.33;65.54;98963.03;1694348;82;21004;-78
2021/08/29 09:50:01;;;;;;;7.15;3.72;;;;;;;21.43;66.14;98965.78;1714123;81;21031;-77
2021/08/29 09:52:28;;;;;;;4.10;3.33;;;;;;;21.59;65.50;98970.92;1669571;82;21406;-77
2021/08/29 09:55:07;;;;;;;7.03;3.30;;;;;;;21.69;66.40;98965.91;1657726;86;21549;-76
2021/08/29 09:57:36;;;;;;;4.45;3.40;;;;;;;21.76;65.07;98972.08;1729263;80;21078;-78
2021/08/29 10:00:14;;;;;;;14.07;4.40;;;;;;;21.73;65.09;98968.69;1719553;82;21501;-76
2021/08/29 10:02:43;;;;;;;10.75;3.95;;;;;;;21.66;65.41;98969.52;1760151;80;21512;-77
2021/08/29 10:05:17;;;;;;;6.33;4.22;;;;;;;21.57;65.79;98972.53;1710094;82;20948;-83
2021/08/29 10:08:11;;;;;;;5.67;3.90;;;;;;;21.53;66.42;98970.34;1698949;83;20936;-79
2021/08/29 10:10:53;;;;;;;11.50;3.83;;;;;;;21.51;67.22;98966.56;1702752;83;21439;-77
2021/08/29 10:13:22;;;;;;;7.70;4.20;;;;;;;21.56;66.55;98968.14;1645859;84;20990;-77
2021/08/29 10:15:57;;;;;;;5.08;3.47;;;;;;;21.64;67.47;98973.31;1712051;82;21013;-79
2021/08/29 10:18:46;;;;;;;4.85;3.70;;;;;;;21.79;67.02;98967.08;1722297;81;20928;-76
2021/08/29 10:21:32;;;;;;;6.62;3.67;;;;;;;21.93;67.23;98960.03;1734266;82;21560;-76
2021/08/29 10:23:58;;;;;;;7.80;3.87;;;;;;;22.00;66.79;98950.80;1734807;81;21035;-76
2021/08/29 10:26:25;;;;;;;5.17;4.10;;;;;;;22.03;67.01;98951.41;1736697;80;21463;-76
2021/08/29 10:29:07;;;;;;;5.47;4.03;;;;;;;22.05;66.57;98943.41;1737759;80;21496;-76
2021/08/29 10:32:09;;;;;;;8.08;4.83;;;;;;;22.07;66.34;98942.41;1684123;83;21114;-76
2021/08/29 10:34:38;;;;;;;7.40;4.35;;;;;;;22.11;66.49;98938.20;1696814;83;21823;-76
2021/08/29 10:37:08;;;;;;;6.33;4.30;;;;;;;22.16;67.96;98935.77;1710093;81;21501;-76
2021/08/29 10:39:54;;;;;;;8.55;4.65;;;;;;;22.21;67.65;98936.73;1723413;80;21031;-76
2021/08/29 10:42:22;;;;;;;6.40;4.60;;;;;;;22.21;66.95;98932.55;1747266;80;21070;-77
2021/08/29 10:44:51;;;;;;;7.95;4.37;;;;;;;22.21;67.12;98936.73;1654401;80;21503;-77
2021/08/29 10:47:21;;;;;;;8.88;4.45;;;;;;;22.17;66.72;98933.17;1734123;80;21159;-73
2021/08/29 10:50:15;;;;;;;7.30;4.70;;;;;;;22.14;67.76;98933.98;1747794;80;21031;-76
2021/08/29 10:52:42;;;;;;;6.25;4.50;;;;;;;22.17;68.28;98933.77;1754739;80;21196;-77
2021/08/29 10:55:14;;;;;;;8.75;4.95;;;;;;;22.17;67.55;98935.97;1752622;80;21056;-75
2021/08/29 10:57:43;;;;;;;8.08;4.30;;;;;;;22.15;66.82;98929.98;1729497;81;21136;-75
2021/08/29 11:00:20;;;;;;;5.42;4.42;;;;;;;22.14;68.25;98935.98;1739243;80;21189;-76
2021/08/29 11:02:48;;;;;;;9.43;5.20;;;;;;;22.14;68.79;98925.59;1723281;80;21706;-72
2021/08/29 11:05:42;;;;;;;6.20;4.40;;;;;;;22.15;67.78;98922.20;1737904;80;20944;-75
2021/08/29 11:08:26;;;;;;;8.50;4.65;;;;;;;22.13;67.35;98918.42;1737160;80;21431;-74
2021/08/29 11:10:54;;;;;;;10.50;4.92;;;;;;;22.11;67.64;98918.03;1737389;80;21091;-77
2021/08/29 11:13:38;;;;;;;7.00;4.80;;;;;;;22.11;67.69;98913.04;1741853;80;21144;-76
2021/08/29 11:16:15;;;;;;;7.37;4.58;;;;;;;22.11;67.60;98913.83;1702650;82;20945;-77
2021/08/29 11:19:07;;;;;;;6.20;4.80;;;;;;;22.13;68.83;98908.63;1687283;83;21018;-75
2021/08/29 11:21:42;;;;;;;8.53;4.72;;;;;;;22.17;68.54;98909.41;1727119;81;21105;-75
2021/08/29 11:24:59;;;;;;;7.40;4.47;;;;;;;22.20;68.80;98910.59;1743638;80;21055;-71
2021/08/29 11:27:46;;;;;;;8.58;5.05;;;;;;;22.19;69.47;98906.20;1687653;83;21496;-75
2021/08/29 11:30:40;;;;;;;7.08;4.85;;;;;;;22.18;69.68;98897.02;1729030;82;21021;-73
2021/08/29 11:33:24;;;;;;;6.12;4.25;;;;;;;22.16;69.37;98887.45;1723896;82;21020;-74
2021/08/29 11:35:53;;;;;;;10.68;4.92;;;;;;;22.16;69.54;98874.88;1744157;80;20984;-71
2021/08/29 11:38:39;;;;;;;7.67;5.35;;;;;;;22.13;69.39;98876.48;1723284;82;21020;-75
2021/08/29 11:41:18;;;;;;;10.32;5.83;;;;;;;22.12;69.48;98874.90;1716565;82;21126;-72
2021/08/29 11:43:52;;;;;;;11.85;5.55;;;;;;;22.14;70.10;98879.48;1729881;82;20976;-74
2021/08/29 11:46:28;;;;;;;10.40;5.95;;;;;;;22.18;70.64;98884.44;1730040;81;21004;-74
2021/08/29 11:49:13;;;;;;;11.20;6.67;;;;;;;22.21;70.44;98887.02;1734143;82;20951;-75
2021/08/29 11:51:49;;;;;;;9.00;5.83;;;;;;;22.21;70.59;98875.84;1675543;82;21087;-78
2021/08/29 11:54:19;;;;;;;12.82;6.50;;;;;;;22.22;71.61;98871.23;1717089;81;21783;-77
2021/08/29 11:56:48;;;;;;;11.28;6.67;;;;;;;22.22;72.41;98864.25;1721509;81;21023;-72
2021/08/29 11:59:33;;;;;;;8.10;5.95;;;;;;;22.23;73.26;98866.44;1729977;82;21056;-72